KGPH

Midwest National Air Center Airport

Mosby, Missouri, USA
METAR KGPH 200715Z AUTO 01004KT 7SM OVC003 00/00 A2979 RMK AO2 LTG DSNT E
Observed Flight Rules
Feb-20 @ 07:15 UTC (16 minutes ago) Instrument Flight Rules
Wind Visibility Clouds
10° at 4 knots 7 miles
  • Overcast at 300' AGL
Temperatures Readings
Current 0°C / 32°F
Dewpoint 0°C / 32°F
Humidity 100%
Altimeter 29.79" Hg
Pressure 1009 hPa
Elevation 235
METAR KGPH 200715Z AUTO 01004KT 7SM OVC003 00/00 A2979 RMK AO2 LTG DSNT E
Observed Flight Rules
Feb-20 @ 07:15 UTC
(16 minutes ago)
LIFR
Wind Visibility
10° at 4 knots 7 miles
Clouds
  • Overcast at 300' AGL
Temperature Dewpoint
0°C / 32°F 0°C / 32°F
Humidity Altimeter Pressure
100% 29.79" Hg 1009 hPa